createdAt,value
2022-12-15T00:00:01.180Z,31.55
2022-12-15T00:03:51.273Z,30.58
2022-12-15T00:06:56.974Z,30.55
2022-12-15T00:10:02.401Z,30.00
2022-12-15T00:13:08.106Z,31.25
2022-12-15T00:16:13.692Z,30.42
2022-12-15T00:19:19.515Z,29.05
2022-12-15T00:22:25.378Z,29.48
2022-12-15T00:25:31.067Z,29.70
2022-12-15T00:28:36.563Z,30.15
2022-12-15T00:31:42.362Z,29.60
2022-12-15T00:34:47.976Z,30.23
2022-12-15T00:37:53.671Z,30.88
2022-12-15T00:40:40.698Z,28.63
2022-12-15T00:43:33.177Z,30.42
2022-12-15T00:46:39.198Z,30.02
2022-12-15T00:49:46.850Z,31.20
2022-12-15T00:52:52.403Z,30.05
2022-12-15T00:55:58.123Z,30.88
2022-12-15T00:59:03.950Z,30.40
2022-12-15T01:02:09.907Z,31.33
2022-12-15T01:05:17.725Z,30.77
2022-12-15T01:08:23.564Z,29.73
2022-12-15T01:11:29.294Z,29.33
2022-12-15T01:14:35.005Z,29.95
2022-12-15T01:17:40.600Z,31.20
2022-12-15T01:20:27.650Z,29.75
2022-12-15T01:23:14.673Z,30.90
2022-12-15T01:26:02.159Z,30.83
2022-12-15T01:28:49.221Z,29.60
2022-12-15T01:31:36.812Z,28.90
2022-12-15T01:34:23.936Z,30.30
2022-12-15T01:37:11.057Z,27.83
2022-12-15T01:40:16.398Z,29.08
2022-12-15T01:43:03.493Z,27.55
2022-12-15T01:45:58.851Z,31.40
2022-12-15T01:48:57.553Z,29.73
2022-12-15T01:51:48.790Z,27.38
2022-12-15T01:54:41.088Z,29.40
2022-12-15T01:57:32.159Z,28.63
2022-12-15T02:00:19.168Z,29.10
2022-12-15T02:03:07.785Z,29.23
2022-12-15T02:05:55.976Z,28.90
2022-12-15T02:08:47.396Z,28.95
2022-12-15T02:12:08.291Z,29.60
2022-12-15T02:15:10.904Z,28.77
2022-12-15T02:18:03.159Z,29.52
2022-12-15T02:21:16.647Z,29.85
2022-12-15T02:24:15.692Z,29.90
2022-12-15T02:27:12.410Z,29.98
2022-12-15T02:30:05.222Z,31.83
2022-12-15T02:33:15.193Z,30.33
2022-12-15T02:36:12.877Z,29.83
2022-12-15T02:39:00.004Z,31.70
2022-12-15T02:41:47.967Z,29.55
2022-12-15T02:44:47.220Z,29.25
2022-12-15T02:47:58.311Z,31.15
2022-12-15T02:51:00.442Z,28.05
2022-12-15T02:54:15.850Z,31.17
2022-12-15T02:57:20.744Z,30.70
2022-12-15T03:00:11.251Z,31.25
2022-12-15T03:02:59.012Z,30.83
2022-12-15T03:05:54.816Z,30.02
2022-12-15T03:08:41.860Z,29.85
2022-12-15T03:11:29.233Z,30.60
2022-12-15T03:14:16.715Z,29.60
2022-12-15T03:17:07.254Z,30.38
2022-12-15T03:19:54.291Z,29.73
2022-12-15T03:22:42.537Z,25.92
2022-12-15T03:25:30.096Z,26.38
2022-12-15T03:28:17.268Z,26.50
2022-12-15T03:31:04.414Z,26.35
2022-12-15T03:33:51.469Z,27.15
2022-12-15T03:36:38.740Z,29.67
2022-12-15T03:39:25.794Z,30.58
2022-12-15T03:42:12.896Z,30.42
2022-12-15T03:44:59.918Z,30.42
2022-12-15T03:47:47.728Z,29.67
2022-12-15T03:50:34.775Z,31.08
2022-12-15T03:53:21.909Z,30.77
2022-12-15T03:56:09.119Z,32.25
2022-12-15T03:58:56.249Z,30.23
2022-12-15T04:01:48.322Z,30.83
2022-12-15T04:04:35.640Z,31.13
2022-12-15T04:07:22.772Z,30.42
2022-12-15T04:10:11.271Z,31.42
2022-12-15T04:13:02.967Z,30.92
2022-12-15T04:15:50.180Z,28.83
2022-12-15T04:18:37.890Z,30.52
2022-12-15T04:21:24.931Z,28.75
2022-12-15T04:24:30.920Z,29.65
2022-12-15T04:27:36.889Z,30.27
2022-12-15T04:30:44.536Z,29.83
2022-12-15T04:33:50.707Z,28.13
2022-12-15T04:36:58.763Z,28.67
2022-12-15T04:40:08.058Z,27.88
2022-12-15T04:43:14.168Z,28.53
2022-12-15T04:46:20.078Z,29.67
2022-12-15T04:49:25.667Z,28.58
2022-12-15T04:52:37.286Z,28.83
2022-12-15T04:55:42.939Z,28.55
2022-12-15T04:58:48.500Z,29.20
2022-12-15T05:01:54.219Z,28.17
2022-12-15T05:04:59.775Z,31.23
2022-12-15T05:08:05.356Z,28.10
2022-12-15T05:11:11.039Z,29.08
2022-12-15T05:14:16.882Z,27.02
2022-12-15T05:17:23.071Z,27.88
2022-12-15T05:20:29.111Z,27.80
2022-12-15T05:23:34.927Z,27.38
2022-12-15T05:26:41.041Z,26.92
2022-12-15T05:29:46.596Z,27.75
2022-12-15T05:32:35.744Z,27.77
2022-12-15T05:35:39.845Z,26.70
2022-12-15T05:38:26.954Z,28.17
2022-12-15T05:41:15.313Z,25.48
2022-12-15T05:44:12.783Z,29.60
2022-12-15T05:47:00.874Z,28.88
2022-12-15T05:49:47.987Z,29.75
2022-12-15T05:52:35.534Z,29.60
2022-12-15T05:55:22.907Z,29.77
2022-12-15T05:58:16.925Z,26.33
2022-12-15T06:01:10.012Z,25.65
2022-12-15T06:03:58.361Z,24.27
2022-12-15T06:06:45.494Z,24.02
2022-12-15T06:09:32.603Z,27.38
2022-12-15T06:12:19.719Z,25.27
2022-12-15T06:15:07.201Z,26.48
2022-12-15T06:17:56.012Z,26.55
2022-12-15T06:20:43.112Z,25.60
2022-12-15T06:23:33.314Z,30.27
2022-12-15T06:26:24.212Z,27.98
2022-12-15T06:29:12.348Z,28.63
2022-12-15T06:31:59.378Z,28.15
2022-12-15T06:34:46.468Z,28.85
2022-12-15T06:37:33.738Z,28.05
2022-12-15T06:40:20.813Z,25.25
2022-12-15T06:43:08.677Z,24.92
2022-12-15T06:45:56.371Z,25.65
2022-12-15T06:48:45.816Z,25.10
2022-12-15T06:51:32.918Z,27.77
2022-12-15T06:54:19.977Z,26.60
2022-12-15T06:57:07.056Z,26.45
2022-12-15T06:59:54.056Z,27.40
2022-12-15T07:02:43.107Z,27.65
2022-12-15T07:05:30.442Z,26.00
2022-12-15T07:08:17.515Z,25.55
2022-12-15T07:11:06.757Z,23.98
2022-12-15T07:13:54.714Z,25.70
2022-12-15T07:16:41.884Z,24.38
2022-12-15T07:19:30.071Z,26.25
2022-12-15T07:22:17.110Z,25.15
2022-12-15T07:25:04.709Z,25.10
2022-12-15T07:27:51.717Z,34.25
2022-12-15T07:30:39.421Z,28.17
2022-12-15T07:33:26.455Z,28.02
2022-12-15T07:36:13.527Z,23.98
2022-12-15T07:39:01.490Z,25.70
2022-12-15T07:41:48.599Z,26.20
2022-12-15T07:44:35.617Z,26.17
2022-12-15T07:47:22.669Z,26.65
2022-12-15T07:50:09.877Z,27.73
2022-12-15T07:52:57.266Z,27.55
2022-12-15T07:56:06.109Z,24.50
2022-12-15T07:58:51.383Z,29.58
2022-12-15T08:01:38.508Z,31.08
2022-12-15T08:04:25.813Z,32.17
2022-12-15T08:07:12.886Z,32.30
2022-12-15T08:10:00.004Z,34.50
2022-12-15T08:12:47.015Z,29.38
2022-12-15T08:15:38.453Z,29.48
2022-12-15T08:18:25.735Z,30.33
2022-12-15T08:21:12.895Z,33.10
2022-12-15T08:24:03.119Z,32.55
2022-12-15T08:29:53.177Z,30.55
2022-12-15T08:32:40.289Z,34.50
2022-12-15T08:35:55.281Z,36.03
2022-12-15T08:38:35.536Z,32.28
2022-12-15T08:41:26.564Z,38.08
2022-12-15T08:44:13.989Z,30.52
2022-12-15T08:47:01.061Z,34.03
2022-12-15T08:49:48.790Z,31.73
2022-12-15T08:52:36.248Z,32.20
2022-12-15T08:55:24.072Z,34.00
2022-12-15T08:58:11.101Z,38.30
2022-12-15T09:01:03.855Z,40.03
2022-12-15T09:03:55.944Z,35.00
2022-12-15T09:06:43.509Z,37.75
2022-12-15T09:09:32.062Z,35.40
2022-12-15T09:12:19.136Z,36.03
2022-12-15T09:15:06.680Z,33.75
2022-12-15T09:17:53.733Z,32.13
2022-12-15T09:20:40.728Z,30.48
2022-12-15T09:23:27.959Z,30.00
2022-12-15T09:26:16.013Z,34.10
2022-12-15T09:29:03.293Z,31.35
2022-12-15T09:31:50.503Z,30.30
2022-12-15T09:34:37.608Z,28.80
2022-12-15T09:37:24.650Z,30.85
2022-12-15T09:40:13.782Z,28.27
2022-12-15T09:43:32.880Z,27.55
2022-12-15T09:46:21.206Z,27.48
2022-12-15T09:49:34.822Z,30.65
2022-12-15T09:52:31.485Z,26.83
2022-12-15T09:55:24.900Z,27.00
2022-12-15T09:58:35.806Z,29.15
2022-12-15T10:01:38.884Z,30.83
2022-12-15T10:04:34.870Z,28.33
2022-12-15T10:07:30.248Z,29.23
2022-12-15T10:10:20.151Z,29.52
2022-12-15T10:13:19.510Z,28.75
2022-12-15T10:16:15.816Z,29.38
2022-12-15T10:19:07.413Z,28.15
2022-12-15T10:21:54.514Z,29.00
2022-12-15T10:25:09.312Z,28.92
2022-12-15T10:28:11.150Z,28.52
2022-12-15T10:31:13.190Z,27.88
2022-12-15T10:34:10.517Z,28.70
2022-12-15T10:36:58.476Z,27.58
2022-12-15T10:42:56.190Z,26.27
2022-12-15T10:45:43.711Z,28.55
2022-12-15T10:48:31.029Z,27.75
2022-12-15T10:51:31.648Z,26.83
2022-12-15T10:54:18.996Z,26.77
2022-12-15T10:57:27.625Z,25.83
2022-12-15T11:00:14.935Z,26.17
2022-12-15T11:03:20.238Z,25.45
2022-12-15T11:06:16.950Z,24.95
2022-12-15T11:09:37.464Z,26.45
2022-12-15T11:12:50.402Z,27.40
2022-12-15T11:15:47.149Z,29.58
2022-12-15T11:18:37.973Z,27.85
2022-12-15T11:21:28.748Z,28.80
2022-12-15T11:24:27.072Z,27.85
2022-12-15T11:27:14.409Z,27.70
2022-12-15T11:30:13.688Z,28.00
2022-12-15T11:33:02.262Z,30.50
2022-12-15T11:36:01.453Z,30.50
2022-12-15T11:39:03.780Z,28.42
2022-12-15T11:42:02.911Z,27.48
2022-12-15T11:45:31.325Z,27.95
2022-12-15T11:48:22.423Z,28.05
2022-12-15T11:51:09.509Z,28.58
2022-12-15T11:54:24.044Z,28.20
2022-12-15T11:57:48.593Z,28.95
2022-12-15T12:00:43.885Z,29.58
2022-12-15T12:03:51.735Z,27.73
2022-12-15T12:06:52.938Z,28.55
2022-12-15T12:09:58.840Z,29.77
2022-12-15T12:12:56.833Z,29.15
2022-12-15T12:16:22.489Z,29.08
2022-12-15T12:19:13.743Z,27.98
2022-12-15T12:22:10.711Z,28.45
2022-12-15T12:25:10.998Z,27.75
2022-12-15T12:30:50.832Z,28.80
2022-12-15T12:33:42.989Z,28.13
2022-12-15T12:36:29.983Z,28.27
2022-12-15T12:39:21.683Z,28.45
2022-12-15T12:42:20.419Z,28.10
2022-12-15T12:45:12.681Z,27.90
2022-12-15T12:48:08.883Z,27.20
2022-12-15T12:51:27.565Z,27.63
2022-12-15T12:54:35.446Z,27.23
2022-12-15T12:57:35.864Z,27.95
2022-12-15T13:00:27.277Z,26.02
2022-12-15T13:03:18.706Z,25.40
2022-12-15T13:06:41.378Z,25.30
2022-12-15T13:09:44.081Z,25.48
2022-12-15T13:12:58.863Z,25.40
2022-12-15T13:15:50.963Z,24.65
2022-12-15T13:19:02.309Z,24.48
2022-12-15T13:21:55.360Z,23.40
2022-12-15T13:24:50.390Z,25.30
2022-12-15T13:27:40.822Z,24.88
2022-12-15T13:33:19.040Z,24.95
2022-12-15T13:36:06.254Z,25.90
2022-12-15T13:38:56.808Z,25.88
2022-12-15T13:42:15.102Z,26.15
2022-12-15T13:45:06.354Z,26.80
2022-12-15T13:47:56.386Z,26.23
2022-12-15T13:51:00.178Z,25.00
2022-12-15T13:54:10.050Z,24.83
2022-12-15T13:57:05.504Z,24.58
2022-12-15T14:00:00.192Z,26.17
2022-12-15T14:02:47.533Z,24.40
2022-12-15T14:05:34.893Z,25.52
2022-12-15T14:08:23.979Z,24.50
2022-12-15T14:11:51.304Z,26.10
2022-12-15T14:14:36.287Z,18.80
2022-12-15T14:17:23.512Z,25.45
2022-12-15T14:20:19.720Z,25.25
2022-12-15T14:23:58.016Z,26.40
2022-12-15T14:26:50.639Z,25.17
2022-12-15T14:29:37.748Z,24.83
2022-12-15T14:32:25.057Z,25.45
2022-12-15T14:35:24.940Z,25.15
2022-12-15T14:38:16.524Z,23.88
2022-12-15T14:41:05.123Z,26.50
2022-12-15T14:44:37.062Z,26.05
2022-12-15T14:47:16.630Z,26.35
2022-12-15T14:50:10.258Z,26.48
2022-12-15T14:53:06.874Z,29.02
2022-12-15T14:55:54.433Z,27.20
2022-12-15T14:58:47.155Z,27.92
2022-12-15T15:01:57.948Z,28.15
2022-12-15T15:03:04.488Z,28.92
2022-12-15T15:05:04.319Z,28.30
2022-12-15T15:07:56.790Z,27.30
2022-12-15T15:10:44.067Z,27.83
2022-12-15T15:13:40.880Z,29.05
2022-12-15T15:16:28.283Z,27.52
2022-12-15T15:19:21.505Z,28.48
2022-12-15T15:22:26.371Z,27.77
2022-12-15T15:25:41.566Z,27.73
2022-12-15T15:28:36.460Z,27.80
2022-12-15T15:31:41.481Z,28.33
2022-12-15T15:34:31.588Z,28.55
2022-12-15T15:37:23.733Z,28.17
2022-12-15T15:40:13.430Z,28.40
2022-12-15T15:43:00.547Z,29.45
2022-12-15T15:45:49.573Z,31.10
2022-12-15T15:48:42.325Z,30.92
2022-12-15T15:51:31.442Z,29.67
2022-12-15T15:54:23.071Z,32.33
2022-12-15T15:57:18.275Z,31.23
2022-12-15T16:00:20.262Z,32.30
2022-12-15T16:03:08.757Z,33.60
2022-12-15T16:05:56.520Z,33.15
2022-12-15T16:08:44.828Z,33.30
2022-12-15T16:11:32.496Z,31.90
2022-12-15T16:14:19.645Z,33.30
2022-12-15T16:17:09.814Z,33.20
2022-12-15T16:22:47.334Z,31.23
2022-12-15T16:25:48.560Z,34.53
2022-12-15T16:28:38.208Z,33.67
2022-12-15T16:31:42.056Z,33.33
2022-12-15T16:34:29.357Z,34.55
2022-12-15T16:37:27.790Z,33.45
2022-12-15T16:40:27.797Z,32.35
2022-12-15T16:43:21.270Z,34.40
2022-12-15T16:46:12.545Z,34.58
2022-12-15T16:48:59.880Z,36.00
2022-12-15T16:51:51.490Z,34.65
2022-12-15T16:54:39.329Z,35.58
2022-12-15T16:57:26.754Z,34.85
2022-12-15T17:00:22.664Z,35.78
2022-12-15T17:03:15.575Z,35.78
2022-12-15T17:06:06.764Z,38.70
2022-12-15T17:08:57.799Z,36.08
2022-12-15T17:11:45.438Z,35.10
2022-12-15T17:14:33.103Z,36.38
2022-12-15T17:17:20.792Z,35.67
2022-12-15T17:23:22.761Z,36.65
2022-12-15T17:26:29.039Z,35.83
2022-12-15T17:29:20.405Z,36.47
2022-12-15T17:32:13.058Z,34.08
2022-12-15T17:35:03.909Z,37.30
2022-12-15T17:37:51.869Z,33.80
2022-12-15T17:40:40.530Z,36.03
2022-12-15T17:43:33.843Z,37.05
2022-12-15T17:46:23.402Z,34.72
2022-12-15T17:49:10.609Z,36.22
2022-12-15T17:52:01.376Z,35.60
2022-12-15T17:54:49.042Z,34.17
2022-12-15T17:57:36.693Z,36.08
2022-12-15T18:00:31.871Z,37.45
2022-12-15T18:03:21.535Z,36.58
2022-12-15T18:06:14.876Z,35.55
2022-12-15T18:09:02.729Z,35.45
2022-12-15T18:11:49.876Z,37.10
2022-12-15T18:14:37.545Z,38.30
2022-12-15T18:17:25.097Z,36.75
2022-12-15T18:20:12.410Z,37.88
2022-12-15T18:23:00.656Z,42.58
2022-12-15T18:25:48.737Z,36.83
2022-12-15T18:28:36.388Z,37.38
2022-12-15T18:31:27.032Z,38.45
2022-12-15T18:34:19.065Z,37.00
2022-12-15T18:37:17.645Z,40.17
2022-12-15T18:40:05.466Z,37.13
2022-12-15T18:42:54.474Z,39.65
2022-12-15T18:45:42.349Z,38.47
2022-12-15T18:48:35.441Z,38.25
2022-12-15T18:51:23.919Z,38.03
2022-12-15T18:54:23.585Z,40.88
2022-12-15T18:57:32.315Z,37.55
2022-12-15T19:00:25.203Z,36.38
2022-12-15T19:03:13.175Z,39.22
2022-12-15T19:06:04.125Z,38.28
2022-12-15T19:08:52.406Z,37.78
2022-12-15T19:11:41.324Z,37.95
2022-12-15T19:14:40.865Z,39.05
2022-12-15T19:17:47.039Z,38.22
2022-12-15T19:20:53.790Z,38.10
2022-12-15T19:23:41.028Z,38.13
2022-12-15T19:26:28.682Z,37.63
2022-12-15T19:29:19.440Z,37.25
2022-12-15T19:32:08.965Z,36.42
2022-12-15T19:34:59.189Z,36.58
2022-12-15T19:37:50.543Z,35.00
2022-12-15T19:51:45.376Z,34.05
2022-12-15T19:57:50.921Z,34.33
2022-12-15T20:00:40.177Z,34.58
2022-12-15T20:03:29.495Z,34.53
2022-12-15T20:06:21.061Z,32.22
2022-12-15T20:09:15.624Z,33.38
2022-12-15T20:12:03.958Z,31.67
2022-12-15T20:14:51.504Z,31.88
2022-12-15T20:17:39.247Z,31.35
2022-12-15T20:20:28.706Z,32.42
2022-12-15T20:23:29.718Z,31.58
2022-12-15T20:26:17.851Z,34.85
2022-12-15T20:29:07.879Z,35.35
2022-12-15T20:31:57.591Z,34.22
2022-12-15T20:34:47.471Z,33.08
2022-12-15T20:37:34.751Z,32.75
2022-12-15T20:40:25.666Z,36.80
2022-12-15T20:43:18.448Z,33.47
2022-12-15T20:46:23.797Z,34.17
2022-12-15T20:49:17.179Z,32.10
2022-12-15T20:52:07.018Z,33.20
2022-12-15T20:54:55.276Z,33.22
2022-12-15T20:57:42.832Z,33.33
2022-12-15T21:00:30.486Z,33.08
2022-12-15T21:03:28.417Z,31.85
2022-12-15T21:06:15.982Z,31.48
2022-12-15T21:09:03.560Z,33.28
2022-12-15T21:11:52.220Z,32.38
2022-12-15T21:14:42.750Z,32.95
2022-12-15T21:17:29.900Z,32.03
2022-12-15T21:20:17.142Z,33.70
2022-12-15T21:23:04.228Z,32.75
2022-12-15T21:25:52.073Z,31.77
2022-12-15T21:28:39.138Z,33.22
2022-12-15T21:31:26.715Z,32.55
2022-12-15T21:34:13.961Z,32.28
2022-12-15T21:37:03.043Z,32.55
2022-12-15T21:39:50.235Z,33.75
2022-12-15T21:42:38.345Z,31.35
2022-12-15T21:45:26.738Z,32.30
2022-12-15T21:48:32.669Z,30.48
2022-12-15T21:51:19.892Z,29.52
2022-12-15T21:54:20.246Z,29.73
2022-12-15T21:57:11.778Z,29.73
2022-12-15T21:59:58.950Z,31.75
2022-12-15T22:02:47.595Z,30.48
2022-12-15T22:05:34.670Z,31.88
2022-12-15T22:08:22.491Z,31.30
2022-12-15T22:11:23.190Z,31.60
2022-12-15T22:14:19.752Z,29.92
2022-12-15T22:17:27.032Z,32.15
2022-12-15T22:20:15.483Z,31.45
2022-12-15T22:23:02.546Z,30.00
2022-12-15T22:25:54.711Z,30.98
2022-12-15T22:28:41.881Z,30.23
2022-12-15T22:31:29.372Z,32.08
2022-12-15T22:34:21.903Z,30.48
2022-12-15T22:37:09.140Z,30.20
2022-12-15T22:39:56.240Z,30.55
2022-12-15T22:42:51.319Z,29.65
2022-12-15T22:45:42.739Z,29.98
2022-12-15T22:48:34.503Z,28.85
2022-12-15T22:51:22.168Z,28.67
2022-12-15T22:54:19.334Z,28.60
2022-12-15T22:57:17.435Z,29.02
2022-12-15T23:00:09.771Z,27.50
2022-12-15T23:05:50.971Z,26.95
2022-12-15T23:08:38.786Z,27.52
2022-12-15T23:11:38.179Z,24.77
2022-12-15T23:14:43.948Z,27.02
2022-12-15T23:17:30.966Z,25.40
2022-12-15T23:20:18.083Z,26.15
2022-12-15T23:23:05.459Z,24.63
2022-12-15T23:25:52.566Z,24.45
2022-12-15T23:28:41.250Z,25.02
2022-12-15T23:31:29.043Z,24.17
2022-12-15T23:34:16.168Z,25.08
2022-12-15T23:37:03.220Z,23.35
2022-12-15T23:39:50.223Z,25.50
2022-12-15T23:42:38.854Z,25.08
2022-12-15T23:45:25.974Z,24.05
2022-12-15T23:48:14.312Z,23.20
2022-12-15T23:51:16.231Z,22.30
2022-12-15T23:54:03.347Z,21.35
2022-12-15T23:56:50.330Z,22.17
2022-12-15T23:59:38.763Z,23.27
